sensor_id;sensor_type;location;lat;lon;timestamp;temperature;humidity
12845;DHT22;6489;48.508;9.206;2022-11-20T00:03:44;5.90;1.00
12845;DHT22;6489;48.508;9.206;2022-11-20T00:07:06;6.20;99.90
12845;DHT22;6489;48.508;9.206;2022-11-20T00:10:28;5.90;99.90
12845;DHT22;6489;48.508;9.206;2022-11-20T00:13:52;5.60;99.90
12845;DHT22;6489;48.508;9.206;2022-11-20T00:17:15;5.70;99.90
12845;DHT22;6489;48.508;9.206;2022-11-20T00:27:21;5.50;99.90
12845;DHT22;6489;48.508;9.206;2022-11-20T00:30:43;5.60;99.90
12845;DHT22;6489;48.508;9.206;2022-11-20T00:34:06;5.50;99.90
12845;DHT22;6489;48.508;9.206;2022-11-20T00:37:28;5.80;99.90
12845;DHT22;6489;48.508;9.206;2022-11-20T00:40:55;5.50;1.00
12845;DHT22;6489;48.508;9.206;2022-11-20T00:47:39;5.40;99.90
12845;DHT22;6489;48.508;9.206;2022-11-20T00:51:02;5.40;1.00
12845;DHT22;6489;48.508;9.206;2022-11-20T00:54:24;4.80;99.90
12845;DHT22;6489;48.508;9.206;2022-11-20T00:57:46;5.20;1.00
12845;DHT22;6489;48.508;9.206;2022-11-20T01:01:10;5.30;99.90
12845;DHT22;6489;48.508;9.206;2022-11-20T01:04:32;5.40;99.90
12845;DHT22;6489;48.508;9.206;2022-11-20T01:07:55;5.70;99.90
12845;DHT22;6489;48.508;9.206;2022-11-20T01:11:18;5.60;99.90
12845;DHT22;6489;48.508;9.206;2022-11-20T01:14:40;5.40;99.90
12845;DHT22;6489;48.508;9.206;2022-11-20T01:18:02;5.30;99.90
12845;DHT22;6489;48.508;9.206;2022-11-20T01:21:27;5.70;99.90
12845;DHT22;6489;48.508;9.206;2022-11-20T01:24:50;5.10;99.90
12845;DHT22;6489;48.508;9.206;2022-11-20T01:28:12;5.50;99.90
12845;DHT22;6489;48.508;9.206;2022-11-20T01:31:36;4.40;1.00
12845;DHT22;6489;48.508;9.206;2022-11-20T01:38:20;4.70;99.90
12845;DHT22;6489;48.508;9.206;2022-11-20T01:41:46;5.00;1.00
12845;DHT22;6489;48.508;9.206;2022-11-20T01:45:51;5.10;1.00
12845;DHT22;6489;48.508;9.206;2022-11-20T01:49:19;5.00;99.90
12845;DHT22;6489;48.508;9.206;2022-11-20T01:52:47;5.30;99.90
12845;DHT22;6489;48.508;9.206;2022-11-20T01:56:12;5.50;99.90
12845;DHT22;6489;48.508;9.206;2022-11-20T01:59:37;4.80;53.20
12845;DHT22;6489;48.508;9.206;2022-11-20T02:03:04;5.10;1.00
12845;DHT22;6489;48.508;9.206;2022-11-20T02:06:29;5.10;99.90
12845;DHT22;6489;48.508;9.206;2022-11-20T02:13:15;4.90;99.90
12845;DHT22;6489;48.508;9.206;2022-11-20T02:21:06;4.70;1.00
12845;DHT22;6489;48.508;9.206;2022-11-20T02:24:30;4.80;99.90
12845;DHT22;6489;48.508;9.206;2022-11-20T02:27:52;4.90;99.90
12845;DHT22;6489;48.508;9.206;2022-11-20T02:31:14;4.80;99.90
12845;DHT22;6489;48.508;9.206;2022-11-20T02:34:36;5.10;99.90
12845;DHT22;6489;48.508;9.206;2022-11-20T02:38:01;4.60;99.90
12845;DHT22;6489;48.508;9.206;2022-11-20T02:41:32;5.00;1.00
12845;DHT22;6489;48.508;9.206;2022-11-20T02:44:54;5.20;99.90
12845;DHT22;6489;48.508;9.206;2022-11-20T02:48:15;5.20;1.00
12845;DHT22;6489;48.508;9.206;2022-11-20T02:51:37;5.50;99.90
12845;DHT22;6489;48.508;9.206;2022-11-20T02:54:59;5.20;99.90
12845;DHT22;6489;48.508;9.206;2022-11-20T02:58:22;5.20;99.90
12845;DHT22;6489;48.508;9.206;2022-11-20T03:01:44;5.90;99.90
12845;DHT22;6489;48.508;9.206;2022-11-20T03:05:06;5.20;99.90
12845;DHT22;6489;48.508;9.206;2022-11-20T03:11:51;6.00;99.90
12845;DHT22;6489;48.508;9.206;2022-11-20T03:15:14;6.00;99.90
12845;DHT22;6489;48.508;9.206;2022-11-20T03:18:36;6.30;99.90
12845;DHT22;6489;48.508;9.206;2022-11-20T03:21:58;5.60;99.90
12845;DHT22;6489;48.508;9.206;2022-11-20T03:28:45;5.50;99.90
12845;DHT22;6489;48.508;9.206;2022-11-20T03:32:09;5.80;99.90
12845;DHT22;6489;48.508;9.206;2022-11-20T03:35:31;5.80;99.90
12845;DHT22;6489;48.508;9.206;2022-11-20T03:42:15;5.80;99.90
12845;DHT22;6489;48.508;9.206;2022-11-20T03:45:51;5.60;99.90
12845;DHT22;6489;48.508;9.206;2022-11-20T03:49:14;5.60;99.90
12845;DHT22;6489;48.508;9.206;2022-11-20T03:52:36;6.10;99.90
12845;DHT22;6489;48.508;9.206;2022-11-20T03:59:19;5.90;99.90
12845;DHT22;6489;48.508;9.206;2022-11-20T04:02:41;5.80;99.90
12845;DHT22;6489;48.508;9.206;2022-11-20T04:06:07;6.60;99.90
12845;DHT22;6489;48.508;9.206;2022-11-20T04:09:29;5.70;99.90
12845;DHT22;6489;48.508;9.206;2022-11-20T04:19:35;4.40;99.90
12845;DHT22;6489;48.508;9.206;2022-11-20T04:22:58;6.10;1.00
12845;DHT22;6489;48.508;9.206;2022-11-20T04:26:22;6.60;99.90
12845;DHT22;6489;48.508;9.206;2022-11-20T04:29:44;6.00;99.90
12845;DHT22;6489;48.508;9.206;2022-11-20T04:33:06;6.20;99.90
12845;DHT22;6489;48.508;9.206;2022-11-20T04:36:29;6.70;99.90
12845;DHT22;6489;48.508;9.206;2022-11-20T04:39:52;6.20;1.00
12845;DHT22;6489;48.508;9.206;2022-11-20T04:43:14;6.00;99.90
12845;DHT22;6489;48.508;9.206;2022-11-20T04:46:37;6.70;99.90
12845;DHT22;6489;48.508;9.206;2022-11-20T04:49:59;5.80;1.00
12845;DHT22;6489;48.508;9.206;2022-11-20T04:53:22;6.40;99.90
12845;DHT22;6489;48.508;9.206;2022-11-20T04:56:47;6.20;99.90
12845;DHT22;6489;48.508;9.206;2022-11-20T05:03:32;6.00;99.90
12845;DHT22;6489;48.508;9.206;2022-11-20T05:06:53;6.00;99.90
12845;DHT22;6489;48.508;9.206;2022-11-20T05:10:15;5.90;99.90
12845;DHT22;6489;48.508;9.206;2022-11-20T05:13:39;6.20;99.90
12845;DHT22;6489;48.508;9.206;2022-11-20T05:20:23;6.10;99.90
12845;DHT22;6489;48.508;9.206;2022-11-20T05:23:45;6.10;99.90
12845;DHT22;6489;48.508;9.206;2022-11-20T05:27:07;6.00;99.90
12845;DHT22;6489;48.508;9.206;2022-11-20T05:30:31;5.70;1.00
12845;DHT22;6489;48.508;9.206;2022-11-20T05:33:52;5.80;99.90
12845;DHT22;6489;48.508;9.206;2022-11-20T05:40:36;5.50;99.90
12845;DHT22;6489;48.508;9.206;2022-11-20T05:43:58;6.00;99.90
12845;DHT22;6489;48.508;9.206;2022-11-20T05:47:21;5.70;99.90
12845;DHT22;6489;48.508;9.206;2022-11-20T05:50:43;5.80;99.90
12845;DHT22;6489;48.508;9.206;2022-11-20T05:54:05;6.00;99.90
12845;DHT22;6489;48.508;9.206;2022-11-20T05:57:27;5.80;99.90
12845;DHT22;6489;48.508;9.206;2022-11-20T06:04:12;5.70;99.90
12845;DHT22;6489;48.508;9.206;2022-11-20T06:10:56;5.40;99.90
12845;DHT22;6489;48.508;9.206;2022-11-20T06:14:18;5.60;99.90
12845;DHT22;6489;48.508;9.206;2022-11-20T06:17:40;5.60;99.90
12845;DHT22;6489;48.508;9.206;2022-11-20T06:24:27;5.60;68.40
12845;DHT22;6489;48.508;9.206;2022-11-20T06:27:48;5.50;99.90
12845;DHT22;6489;48.508;9.206;2022-11-20T06:34:33;5.60;99.90
12845;DHT22;6489;48.508;9.206;2022-11-20T06:37:57;5.60;1.00
12845;DHT22;6489;48.508;9.206;2022-11-20T06:41:20;5.50;99.90
12845;DHT22;6489;48.508;9.206;2022-11-20T06:44:42;5.70;99.90
12845;DHT22;6489;48.508;9.206;2022-11-20T06:48:04;5.50;99.90
12845;DHT22;6489;48.508;9.206;2022-11-20T06:51:26;5.60;99.90
12845;DHT22;6489;48.508;9.206;2022-11-20T06:54:49;5.90;99.90
12845;DHT22;6489;48.508;9.206;2022-11-20T06:58:11;6.00;99.90
12845;DHT22;6489;48.508;9.206;2022-11-20T07:01:33;5.70;99.90
12845;DHT22;6489;48.508;9.206;2022-11-20T07:08:17;5.60;99.90
12845;DHT22;6489;48.508;9.206;2022-11-20T07:15:03;6.20;99.90
12845;DHT22;6489;48.508;9.206;2022-11-20T07:21:47;5.80;99.90
12845;DHT22;6489;48.508;9.206;2022-11-20T07:25:09;5.40;99.90
12845;DHT22;6489;48.508;9.206;2022-11-20T07:28:33;6.40;99.90
12845;DHT22;6489;48.508;9.206;2022-11-20T07:31:55;5.70;99.90
12845;DHT22;6489;48.508;9.206;2022-11-20T07:38:39;6.10;99.90
12845;DHT22;6489;48.508;9.206;2022-11-20T07:42:01;6.70;99.90
12845;DHT22;6489;48.508;9.206;2022-11-20T07:52:08;6.70;99.90
12845;DHT22;6489;48.508;9.206;2022-11-20T07:55:30;6.70;99.90
12845;DHT22;6489;48.508;9.206;2022-11-20T07:58:52;6.30;99.90
12845;DHT22;6489;48.508;9.206;2022-11-20T08:02:16;6.90;99.90
12845;DHT22;6489;48.508;9.206;2022-11-20T08:05:37;7.20;99.90
12845;DHT22;6489;48.508;9.206;2022-11-20T08:08:59;6.70;99.90
12845;DHT22;6489;48.508;9.206;2022-11-20T08:16:01;7.20;99.90
12845;DHT22;6489;48.508;9.206;2022-11-20T08:22:47;6.30;53.00
12845;DHT22;6489;48.508;9.206;2022-11-20T08:26:08;6.70;99.90
12845;DHT22;6489;48.508;9.206;2022-11-20T08:29:30;6.70;99.90
12845;DHT22;6489;48.508;9.206;2022-11-20T08:32:53;6.80;99.90
12845;DHT22;6489;48.508;9.206;2022-11-20T08:36:17;6.80;99.90
12845;DHT22;6489;48.508;9.206;2022-11-20T08:39:39;6.60;99.90
12845;DHT22;6489;48.508;9.206;2022-11-20T08:46:24;6.70;99.90
12845;DHT22;6489;48.508;9.206;2022-11-20T08:49:46;6.60;99.90
12845;DHT22;6489;48.508;9.206;2022-11-20T08:53:09;6.90;1.00
12845;DHT22;6489;48.508;9.206;2022-11-20T08:56:31;6.50;99.90
12845;DHT22;6489;48.508;9.206;2022-11-20T08:59:53;7.30;99.90
12845;DHT22;6489;48.508;9.206;2022-11-20T09:10:01;6.90;1.00
12845;DHT22;6489;48.508;9.206;2022-11-20T09:13:25;7.40;99.90
12845;DHT22;6489;48.508;9.206;2022-11-20T09:16:47;7.30;99.90
12845;DHT22;6489;48.508;9.206;2022-11-20T09:23:33;7.50;99.90
12845;DHT22;6489;48.508;9.206;2022-11-20T09:26:57;9.40;1.00
12845;DHT22;6489;48.508;9.206;2022-11-20T09:33:41;7.00;99.90
12845;DHT22;6489;48.508;9.206;2022-11-20T09:43:57;7.00;1.00
12845;DHT22;6489;48.508;9.206;2022-11-20T09:47:28;7.00;1.00
12845;DHT22;6489;48.508;9.206;2022-11-20T09:50:57;7.00;99.90
12845;DHT22;6489;48.508;9.206;2022-11-20T09:54:29;6.90;1.00
12845;DHT22;6489;48.508;9.206;2022-11-20T10:01:18;6.50;99.90
12845;DHT22;6489;48.508;9.206;2022-11-20T10:04:45;6.50;99.90
12845;DHT22;6489;48.508;9.206;2022-11-20T10:08:15;6.80;1.00
12845;DHT22;6489;48.508;9.206;2022-11-20T10:15:21;6.80;1.00
12845;DHT22;6489;48.508;9.206;2022-11-20T10:29:11;6.90;1.00
12845;DHT22;6489;48.508;9.206;2022-11-20T10:32:37;6.90;1.00
12845;DHT22;6489;48.508;9.206;2022-11-20T10:36:08;6.90;1.00
12845;DHT22;6489;48.508;9.206;2022-11-20T10:39:36;7.00;1.00
12845;DHT22;6489;48.508;9.206;2022-11-20T10:43:04;7.10;1.00
12845;DHT22;6489;48.508;9.206;2022-11-20T10:50:00;7.20;1.00
12845;DHT22;6489;48.508;9.206;2022-11-20T10:53:38;7.20;1.00
12845;DHT22;6489;48.508;9.206;2022-11-20T11:14:04;7.40;1.00
12845;DHT22;6489;48.508;9.206;2022-11-20T11:17:28;7.00;99.90
12845;DHT22;6489;48.508;9.206;2022-11-20T11:20:52;7.50;1.00
12845;DHT22;6489;48.508;9.206;2022-11-20T11:27:45;7.60;1.00
12845;DHT22;6489;48.508;9.206;2022-11-20T11:31:08;8.00;99.90
12845;DHT22;6489;48.508;9.206;2022-11-20T11:34:29;7.20;99.90
12845;DHT22;6489;48.508;9.206;2022-11-20T11:38:02;8.20;1.00
12845;DHT22;6489;48.508;9.206;2022-11-20T11:41:29;8.60;1.00
12845;DHT22;6489;48.508;9.206;2022-11-20T11:55:31;9.50;1.00
12845;DHT22;6489;48.508;9.206;2022-11-20T11:58:58;9.70;9.50
12845;DHT22;6489;48.508;9.206;2022-11-20T12:05:57;10.00;1.00
12845;DHT22;6489;48.508;9.206;2022-11-20T12:09:34;10.00;1.00
12845;DHT22;6489;48.508;9.206;2022-11-20T12:13:04;9.70;1.00
12845;DHT22;6489;48.508;9.206;2022-11-20T12:16:28;12.80;1.00
12845;DHT22;6489;48.508;9.206;2022-11-20T12:19:52;9.10;1.00
12845;DHT22;6489;48.508;9.206;2022-11-20T12:23:17;9.20;14.70
12845;DHT22;6489;48.508;9.206;2022-11-20T12:30:17;8.60;1.00
12845;DHT22;6489;48.508;9.206;2022-11-20T12:37:17;8.20;1.00
12845;DHT22;6489;48.508;9.206;2022-11-20T12:40:50;8.10;1.00
12845;DHT22;6489;48.508;9.206;2022-11-20T12:44:24;8.20;1.00
12845;DHT22;6489;48.508;9.206;2022-11-20T12:48:35;8.30;1.00
12845;DHT22;6489;48.508;9.206;2022-11-20T12:52:12;8.50;1.00
12845;DHT22;6489;48.508;9.206;2022-11-20T12:59:24;8.50;1.00
12845;DHT22;6489;48.508;9.206;2022-11-20T13:03:09;8.30;1.00
12845;DHT22;6489;48.508;9.206;2022-11-20T13:06:37;8.20;1.00
12845;DHT22;6489;48.508;9.206;2022-11-20T13:13:31;8.10;41.70
12845;DHT22;6489;48.508;9.206;2022-11-20T13:16:59;8.20;1.00
12845;DHT22;6489;48.508;9.206;2022-11-20T13:20:22;8.60;12.20
12845;DHT22;6489;48.508;9.206;2022-11-20T13:23:45;8.40;15.30
12845;DHT22;6489;48.508;9.206;2022-11-20T13:27:19;8.40;1.00
12845;DHT22;6489;48.508;9.206;2022-11-20T13:30:50;8.40;1.00
12845;DHT22;6489;48.508;9.206;2022-11-20T13:34:20;8.40;1.00
12845;DHT22;6489;48.508;9.206;2022-11-20T13:37:44;8.30;1.00
12845;DHT22;6489;48.508;9.206;2022-11-20T13:41:08;8.30;1.00
12845;DHT22;6489;48.508;9.206;2022-11-20T13:48:20;8.20;1.00
12845;DHT22;6489;48.508;9.206;2022-11-20T13:55:14;8.30;1.00
12845;DHT22;6489;48.508;9.206;2022-11-20T13:58:47;8.40;1.00
12845;DHT22;6489;48.508;9.206;2022-11-20T14:02:14;7.80;45.20
12845;DHT22;6489;48.508;9.206;2022-11-20T14:05:39;7.90;31.80
12845;DHT22;6489;48.508;9.206;2022-11-20T14:09:03;7.90;33.00
12845;DHT22;6489;48.508;9.206;2022-11-20T14:12:28;8.20;1.00
12845;DHT22;6489;48.508;9.206;2022-11-20T14:15:56;8.00;1.00
12845;DHT22;6489;48.508;9.206;2022-11-20T14:22:51;8.10;1.00
12845;DHT22;6489;48.508;9.206;2022-11-20T14:26:14;7.80;1.00
12845;DHT22;6489;48.508;9.206;2022-11-20T14:29:40;7.80;1.00
12845;DHT22;6489;48.508;9.206;2022-11-20T14:33:04;8.50;1.00
12845;DHT22;6489;48.508;9.206;2022-11-20T14:36:27;8.10;1.00
12845;DHT22;6489;48.508;9.206;2022-11-20T14:43:19;8.10;1.00
12845;DHT22;6489;48.508;9.206;2022-11-20T14:46:42;8.40;1.00
12845;DHT22;6489;48.508;9.206;2022-11-20T14:50:12;8.10;1.00
12845;DHT22;6489;48.508;9.206;2022-11-20T14:53:35;8.20;1.00
12845;DHT22;6489;48.508;9.206;2022-11-20T15:00:21;8.00;1.00
12845;DHT22;6489;48.508;9.206;2022-11-20T15:03:43;8.20;1.00
12845;DHT22;6489;48.508;9.206;2022-11-20T15:07:07;7.70;1.00
12845;DHT22;6489;48.508;9.206;2022-11-20T15:10:29;8.00;1.00
12845;DHT22;6489;48.508;9.206;2022-11-20T15:13:50;7.80;1.00
12845;DHT22;6489;48.508;9.206;2022-11-20T15:17:12;7.40;1.00
12845;DHT22;6489;48.508;9.206;2022-11-20T15:20:35;7.70;1.00
12845;DHT22;6489;48.508;9.206;2022-11-20T15:23:59;8.20;1.00
12845;DHT22;6489;48.508;9.206;2022-11-20T15:30:43;7.40;1.80
12845;DHT22;6489;48.508;9.206;2022-11-20T15:34:08;7.70;17.80
12845;DHT22;6489;48.508;9.206;2022-11-20T15:37:30;7.20;44.90
12845;DHT22;6489;48.508;9.206;2022-11-20T15:40:53;7.40;24.50
12845;DHT22;6489;48.508;9.206;2022-11-20T15:44:15;7.60;4.40
12845;DHT22;6489;48.508;9.206;2022-11-20T15:47:37;7.40;47.30
12845;DHT22;6489;48.508;9.206;2022-11-20T15:51:02;7.10;1.00
12845;DHT22;6489;48.508;9.206;2022-11-20T15:54:25;7.00;1.00
12845;DHT22;6489;48.508;9.206;2022-11-20T15:57:48;7.20;1.00
12845;DHT22;6489;48.508;9.206;2022-11-20T16:01:10;7.10;1.00
12845;DHT22;6489;48.508;9.206;2022-11-20T16:04:33;7.50;4.60
12845;DHT22;6489;48.508;9.206;2022-11-20T16:07:55;6.70;3.70
12845;DHT22;6489;48.508;9.206;2022-11-20T16:11:17;7.10;1.00
12845;DHT22;6489;48.508;9.206;2022-11-20T16:14:41;6.70;1.00
12845;DHT22;6489;48.508;9.206;2022-11-20T16:21:47;6.60;1.00
12845;DHT22;6489;48.508;9.206;2022-11-20T16:25:09;6.40;1.00
12845;DHT22;6489;48.508;9.206;2022-11-20T16:28:31;6.40;47.50
12845;DHT22;6489;48.508;9.206;2022-11-20T16:31:56;6.60;1.00
12845;DHT22;6489;48.508;9.206;2022-11-20T16:35:18;6.60;22.60
12845;DHT22;6489;48.508;9.206;2022-11-20T16:38:40;6.70;34.80
12845;DHT22;6489;48.508;9.206;2022-11-20T16:42:03;6.50;14.90
12845;DHT22;6489;48.508;9.206;2022-11-20T16:48:54;6.70;1.00
12845;DHT22;6489;48.508;9.206;2022-11-20T16:52:16;6.70;12.60
12845;DHT22;6489;48.508;9.206;2022-11-20T16:55:38;6.60;1.00
12845;DHT22;6489;48.508;9.206;2022-11-20T16:59:00;7.20;5.20
12845;DHT22;6489;48.508;9.206;2022-11-20T17:05:46;6.80;1.00
12845;DHT22;6489;48.508;9.206;2022-11-20T17:09:08;7.20;1.00
12845;DHT22;6489;48.508;9.206;2022-11-20T17:12:31;6.80;1.00
12845;DHT22;6489;48.508;9.206;2022-11-20T17:29:24;6.70;1.00
12845;DHT22;6489;48.508;9.206;2022-11-20T17:39:32;6.80;1.00
12845;DHT22;6489;48.508;9.206;2022-11-20T17:42:54;6.80;1.00
12845;DHT22;6489;48.508;9.206;2022-11-20T17:46:17;7.10;1.00
12845;DHT22;6489;48.508;9.206;2022-11-20T17:49:40;7.10;1.00
12845;DHT22;6489;48.508;9.206;2022-11-20T17:56:26;6.90;1.00
12845;DHT22;6489;48.508;9.206;2022-11-20T18:00:11;7.10;1.00
12845;DHT22;6489;48.508;9.206;2022-11-20T18:03:36;7.10;1.00
12845;DHT22;6489;48.508;9.206;2022-11-20T18:06:58;6.90;1.00
12845;DHT22;6489;48.508;9.206;2022-11-20T18:10:19;6.80;1.00
12845;DHT22;6489;48.508;9.206;2022-11-20T18:13:45;7.10;1.00
12845;DHT22;6489;48.508;9.206;2022-11-20T18:17:24;6.90;1.00
12845;DHT22;6489;48.508;9.206;2022-11-20T18:20:52;7.00;1.00
12845;DHT22;6489;48.508;9.206;2022-11-20T18:24:14;7.10;1.00
12845;DHT22;6489;48.508;9.206;2022-11-20T18:27:36;7.50;1.00
12845;DHT22;6489;48.508;9.206;2022-11-20T18:31:04;7.10;1.00
12845;DHT22;6489;48.508;9.206;2022-11-20T18:37:48;7.40;1.00
12845;DHT22;6489;48.508;9.206;2022-11-20T18:41:10;7.00;1.00
12845;DHT22;6489;48.508;9.206;2022-11-20T18:44:53;6.90;1.00
12845;DHT22;6489;48.508;9.206;2022-11-20T18:58:22;7.00;1.00
12845;DHT22;6489;48.508;9.206;2022-11-20T19:11:55;6.90;56.10
12845;DHT22;6489;48.508;9.206;2022-11-20T19:22:03;6.80;68.00
12845;DHT22;6489;48.508;9.206;2022-11-20T19:25:25;6.20;1.00
12845;DHT22;6489;48.508;9.206;2022-11-20T19:32:09;6.30;99.90
12845;DHT22;6489;48.508;9.206;2022-11-20T19:35:31;6.10;99.90
12845;DHT22;6489;48.508;9.206;2022-11-20T19:38:55;6.20;99.90
12845;DHT22;6489;48.508;9.206;2022-11-20T19:42:17;5.80;99.90
12845;DHT22;6489;48.508;9.206;2022-11-20T19:45:38;5.50;99.90
12845;DHT22;6489;48.508;9.206;2022-11-20T19:52:23;6.40;99.90
12845;DHT22;6489;48.508;9.206;2022-11-20T19:55:55;5.80;1.00
12845;DHT22;6489;48.508;9.206;2022-11-20T19:59:17;6.00;99.90
12845;DHT22;6489;48.508;9.206;2022-11-20T20:06:02;6.00;99.90
12845;DHT22;6489;48.508;9.206;2022-11-20T20:09:24;5.90;1.00
12845;DHT22;6489;48.508;9.206;2022-11-20T20:16:11;5.50;99.90
12845;DHT22;6489;48.508;9.206;2022-11-20T20:19:34;5.70;99.90
12845;DHT22;6489;48.508;9.206;2022-11-20T20:22:56;6.00;99.90
12845;DHT22;6489;48.508;9.206;2022-11-20T20:26:18;5.60;99.90
12845;DHT22;6489;48.508;9.206;2022-11-20T20:29:42;5.70;99.90
12845;DHT22;6489;48.508;9.206;2022-11-20T20:33:04;5.30;99.90
12845;DHT22;6489;48.508;9.206;2022-11-20T20:36:26;5.60;99.90
12845;DHT22;6489;48.508;9.206;2022-11-20T20:39:48;5.60;1.00
12845;DHT22;6489;48.508;9.206;2022-11-20T20:43:10;5.60;99.90
12845;DHT22;6489;48.508;9.206;2022-11-20T20:46:33;5.60;1.00
12845;DHT22;6489;48.508;9.206;2022-11-20T20:53:17;6.00;99.90
12845;DHT22;6489;48.508;9.206;2022-11-20T20:56:39;5.50;99.90
12845;DHT22;6489;48.508;9.206;2022-11-20T21:00:01;5.60;99.90
12845;DHT22;6489;48.508;9.206;2022-11-20T21:03:24;5.60;1.00
12845;DHT22;6489;48.508;9.206;2022-11-20T21:06:46;5.60;99.90
12845;DHT22;6489;48.508;9.206;2022-11-20T21:13:31;5.80;99.90
12845;DHT22;6489;48.508;9.206;2022-11-20T21:16:53;5.30;1.00
12845;DHT22;6489;48.508;9.206;2022-11-20T21:27:15;5.40;99.90
12845;DHT22;6489;48.508;9.206;2022-11-20T21:33:59;5.30;99.90
12845;DHT22;6489;48.508;9.206;2022-11-20T21:37:23;5.40;99.90
12845;DHT22;6489;48.508;9.206;2022-11-20T21:40:45;5.20;99.90
12845;DHT22;6489;48.508;9.206;2022-11-20T21:47:30;5.20;99.90
12845;DHT22;6489;48.508;9.206;2022-11-20T21:50:52;4.90;99.90
12845;DHT22;6489;48.508;9.206;2022-11-20T21:54:15;5.10;1.00
12845;DHT22;6489;48.508;9.206;2022-11-20T21:57:38;5.20;99.90
12845;DHT22;6489;48.508;9.206;2022-11-20T22:01:05;5.00;99.90
12845;DHT22;6489;48.508;9.206;2022-11-20T22:04:27;4.90;99.90
12845;DHT22;6489;48.508;9.206;2022-11-20T22:07:49;5.30;99.90
12845;DHT22;6489;48.508;9.206;2022-11-20T22:11:14;5.10;1.00
12845;DHT22;6489;48.508;9.206;2022-11-20T22:17:58;4.90;1.00
12845;DHT22;6489;48.508;9.206;2022-11-20T22:21:38;5.50;1.00
12845;DHT22;6489;48.508;9.206;2022-11-20T22:25:01;5.60;1.00
12845;DHT22;6489;48.508;9.206;2022-11-20T22:28:24;5.10;1.00
12845;DHT22;6489;48.508;9.206;2022-11-20T22:31:46;4.70;1.00
12845;DHT22;6489;48.508;9.206;2022-11-20T22:38:31;5.30;1.00
12845;DHT22;6489;48.508;9.206;2022-11-20T22:41:53;4.70;1.00
12845;DHT22;6489;48.508;9.206;2022-11-20T22:45:17;4.80;1.00
12845;DHT22;6489;48.508;9.206;2022-11-20T22:52:02;4.70;1.00
12845;DHT22;6489;48.508;9.206;2022-11-20T22:55:24;4.70;1.00
12845;DHT22;6489;48.508;9.206;2022-11-20T22:58:47;4.80;1.00
12845;DHT22;6489;48.508;9.206;2022-11-20T23:05:32;5.40;1.00
12845;DHT22;6489;48.508;9.206;2022-11-20T23:12:16;5.20;1.00
12845;DHT22;6489;48.508;9.206;2022-11-20T23:15:38;4.80;99.90
12845;DHT22;6489;48.508;9.206;2022-11-20T23:19:04;4.90;1.00
12845;DHT22;6489;48.508;9.206;2022-11-20T23:22:26;4.90;1.00
12845;DHT22;6489;48.508;9.206;2022-11-20T23:25:48;4.50;1.00
12845;DHT22;6489;48.508;9.206;2022-11-20T23:29:10;6.30;99.90
12845;DHT22;6489;48.508;9.206;2022-11-20T23:32:32;5.10;1.00
12845;DHT22;6489;48.508;9.206;2022-11-20T23:35:56;4.40;1.00
12845;DHT22;6489;48.508;9.206;2022-11-20T23:39:17;4.90;1.00
12845;DHT22;6489;48.508;9.206;2022-11-20T23:49:43;5.00;99.90
12845;DHT22;6489;48.508;9.206;2022-11-20T23:59:51;4.40;1.00
